createdAt,value
2016-10-23T00:00:21.852Z,0
2016-10-23T00:01:02.549Z,0
2016-10-23T00:01:43.228Z,0
2016-10-23T00:02:23.885Z,0
2016-10-23T00:03:04.573Z,0
2016-10-23T00:03:45.269Z,0
2016-10-23T00:04:25.907Z,0
2016-10-23T00:05:06.568Z,0
2016-10-23T00:05:47.213Z,0
2016-10-23T00:06:27.893Z,0
2016-10-23T00:07:08.543Z,0
2016-10-23T00:07:49.200Z,0
2016-10-23T00:08:29.925Z,0
2016-10-23T00:09:10.604Z,0
2016-10-23T00:09:51.321Z,0
2016-10-23T00:10:32.019Z,0
2016-10-23T00:11:12.678Z,0
2016-10-23T00:11:53.401Z,0
2016-10-23T00:12:34.102Z,0
2016-10-23T00:13:14.730Z,0
2016-10-23T00:13:55.424Z,0
2016-10-23T00:14:36.093Z,0
2016-10-23T00:15:16.777Z,0
2016-10-23T00:15:57.467Z,0
2016-10-23T00:16:38.160Z,0
2016-10-23T00:17:18.797Z,0
2016-10-23T00:17:59.482Z,0
2016-10-23T00:18:40.173Z,0
2016-10-23T00:19:20.864Z,0
2016-10-23T00:20:01.562Z,0
2016-10-23T00:20:42.217Z,0
2016-10-23T00:21:22.897Z,0
2016-10-23T00:22:03.647Z,0
2016-10-23T00:22:44.347Z,0
2016-10-23T00:23:24.995Z,0
2016-10-23T00:24:05.716Z,0
2016-10-23T00:24:46.415Z,0
2016-10-23T00:25:27.057Z,0
2016-10-23T00:26:07.782Z,0
2016-10-23T00:26:48.438Z,0
2016-10-23T00:27:29.151Z,0
2016-10-23T00:28:09.831Z,0
2016-10-23T00:28:50.522Z,0
2016-10-23T00:29:31.175Z,0
2016-10-23T00:30:11.859Z,0
2016-10-23T00:30:52.552Z,0
2016-10-23T00:31:33.216Z,0
2016-10-23T00:32:13.910Z,0
2016-10-23T00:32:54.608Z,0
2016-10-23T00:33:35.302Z,0
2016-10-23T00:34:16.504Z,0
2016-10-23T00:34:57.209Z,0
2016-10-23T00:35:37.863Z,0
2016-10-23T00:36:18.568Z,0
2016-10-23T00:36:59.267Z,0
2016-10-23T00:37:39.937Z,0
2016-10-23T00:38:20.619Z,0
2016-10-23T00:39:01.247Z,0
2016-10-23T00:39:41.937Z,0
2016-10-23T00:40:22.651Z,0
2016-10-23T00:41:03.293Z,0
2016-10-23T00:41:43.980Z,0
2016-10-23T00:42:24.688Z,0
2016-10-23T00:43:05.392Z,0
2016-10-23T00:43:46.046Z,0
2016-10-23T00:44:26.741Z,0
2016-10-23T00:45:07.463Z,0
2016-10-23T00:45:48.135Z,0
2016-10-23T00:46:28.822Z,0
2016-10-23T00:47:09.540Z,0
2016-10-23T00:47:50.185Z,0
2016-10-23T00:48:30.924Z,0
2016-10-23T00:49:11.591Z,0
2016-10-23T00:49:52.221Z,0
2016-10-23T00:50:32.945Z,0
2016-10-23T00:51:13.617Z,0
2016-10-23T00:51:54.333Z,0
2016-10-23T00:52:35.024Z,0
2016-10-23T00:53:15.727Z,0
2016-10-23T00:53:56.451Z,0
2016-10-23T00:54:37.135Z,0
2016-10-23T00:55:17.827Z,0
2016-10-23T00:55:58.512Z,0
2016-10-23T00:56:39.214Z,0
2016-10-23T00:57:19.907Z,0
2016-10-23T00:58:00.569Z,0
2016-10-23T00:58:41.246Z,0
2016-10-23T00:59:21.917Z,0
2016-10-23T01:00:02.580Z,0
2016-10-23T01:00:43.268Z,0
2016-10-23T01:01:23.996Z,0
2016-10-23T01:02:04.630Z,0
2016-10-23T01:02:45.316Z,0
2016-10-23T01:03:25.990Z,0
2016-10-23T01:04:06.691Z,0
2016-10-23T01:04:47.385Z,0
2016-10-23T01:05:28.052Z,0
2016-10-23T01:06:08.784Z,0
2016-10-23T01:06:49.420Z,0
2016-10-23T01:07:30.116Z,0
2016-10-23T01:08:10.764Z,0
2016-10-23T01:08:51.456Z,0
2016-10-23T01:09:32.126Z,0
2016-10-23T01:10:12.813Z,0
2016-10-23T01:10:53.490Z,0
2016-10-23T01:11:34.168Z,0
2016-10-23T01:12:14.891Z,0
2016-10-23T01:12:55.529Z,0
2016-10-23T01:13:36.203Z,0
2016-10-23T01:14:16.877Z,0
2016-10-23T01:14:57.529Z,0
2016-10-23T01:15:38.178Z,0
2016-10-23T01:16:18.830Z,0
2016-10-23T01:16:59.552Z,0
2016-10-23T01:17:40.248Z,0
2016-10-23T01:18:20.935Z,0
2016-10-23T01:19:01.614Z,0
2016-10-23T01:19:42.329Z,0
2016-10-23T01:20:22.993Z,0
2016-10-23T01:21:03.666Z,0
2016-10-23T01:21:44.384Z,0
2016-10-23T01:22:25.077Z,0
2016-10-23T01:23:05.747Z,0
2016-10-23T01:23:46.419Z,0
2016-10-23T01:24:27.052Z,0
2016-10-23T01:25:07.733Z,0
2016-10-23T01:25:48.422Z,0
2016-10-23T01:26:29.110Z,0
2016-10-23T01:27:09.810Z,0
2016-10-23T01:27:50.497Z,0
2016-10-23T01:28:31.166Z,0
2016-10-23T01:29:11.894Z,0
2016-10-23T01:29:52.524Z,0
2016-10-23T01:30:33.218Z,0
2016-10-23T01:31:13.921Z,0
2016-10-23T01:31:54.576Z,0
2016-10-23T01:32:35.244Z,0
2016-10-23T01:33:15.920Z,0
2016-10-23T01:33:56.605Z,0
2016-10-23T01:34:37.298Z,0
2016-10-23T01:35:18.021Z,0
2016-10-23T01:35:58.697Z,0
2016-10-23T01:36:39.380Z,0
2016-10-23T01:37:20.061Z,0
2016-10-23T01:38:00.796Z,0
2016-10-23T01:38:41.448Z,0
2016-10-23T01:39:22.162Z,0
2016-10-23T01:40:02.862Z,0
2016-10-23T01:40:43.625Z,0
2016-10-23T01:41:24.304Z,0
2016-10-23T01:42:05.023Z,0
2016-10-23T01:42:45.688Z,0
2016-10-23T01:43:26.376Z,0
2016-10-23T01:44:07.079Z,0
2016-10-23T01:44:47.781Z,0
2016-10-23T01:45:28.492Z,0
2016-10-23T01:46:09.174Z,0
2016-10-23T01:46:49.848Z,0
2016-10-23T01:47:30.521Z,0
2016-10-23T01:48:11.196Z,0
2016-10-23T01:48:51.840Z,0
2016-10-23T01:49:32.527Z,0
2016-10-23T01:50:13.169Z,0
2016-10-23T01:50:53.846Z,0
2016-10-23T01:51:34.527Z,0
2016-10-23T01:52:15.243Z,0
2016-10-23T01:52:55.923Z,0
2016-10-23T01:53:36.585Z,0
2016-10-23T01:54:17.278Z,0
2016-10-23T01:54:57.998Z,0
2016-10-23T01:55:38.689Z,0
2016-10-23T01:56:19.384Z,0
2016-10-23T01:57:00.096Z,0
2016-10-23T01:57:40.820Z,0
2016-10-23T01:58:21.520Z,0
2016-10-23T01:59:02.231Z,0
2016-10-23T01:59:42.907Z,0
2016-10-23T02:00:23.570Z,0
2016-10-23T02:01:04.325Z,0
2016-10-23T02:01:45.037Z,0
2016-10-23T02:02:25.730Z,0
2016-10-23T02:03:06.399Z,0
2016-10-23T02:03:47.097Z,0
2016-10-23T02:04:27.785Z,0
2016-10-23T02:05:08.447Z,0
2016-10-23T02:05:49.177Z,0
2016-10-23T02:06:29.829Z,0
2016-10-23T02:07:10.511Z,0
2016-10-23T02:07:51.229Z,0
2016-10-23T02:08:31.917Z,0
2016-10-23T02:09:12.597Z,0
2016-10-23T02:09:53.273Z,0
2016-10-23T02:10:33.964Z,0
2016-10-23T02:11:14.655Z,0
2016-10-23T02:11:55.336Z,0
2016-10-23T02:12:36.013Z,0
2016-10-23T02:13:16.755Z,0
2016-10-23T02:13:57.460Z,0
2016-10-23T02:14:38.097Z,0
2016-10-23T02:15:18.807Z,0
2016-10-23T02:15:59.513Z,0
2016-10-23T02:16:40.150Z,0
2016-10-23T02:17:20.807Z,0
2016-10-23T02:18:01.500Z,0
2016-10-23T02:18:42.196Z,0
2016-10-23T02:19:22.883Z,0
2016-10-23T02:20:03.586Z,0
2016-10-23T02:20:44.233Z,0
2016-10-23T02:21:24.905Z,0
2016-10-23T02:22:05.613Z,0
2016-10-23T02:22:46.293Z,0
2016-10-23T02:23:27.007Z,0
2016-10-23T02:24:07.687Z,0
2016-10-23T02:24:48.329Z,0
2016-10-23T02:25:29.021Z,0
2016-10-23T02:26:09.735Z,0
2016-10-23T02:26:50.421Z,0
2016-10-23T02:27:31.102Z,0
2016-10-23T02:28:11.777Z,0
2016-10-23T02:28:52.435Z,0
2016-10-23T02:29:33.116Z,0
2016-10-23T02:30:13.809Z,0
2016-10-23T02:30:54.506Z,0
2016-10-23T02:31:35.170Z,0
2016-10-23T02:32:15.873Z,0
2016-10-23T02:32:56.531Z,0
2016-10-23T02:33:37.181Z,0
2016-10-23T02:34:17.841Z,0
2016-10-23T02:34:58.482Z,0
2016-10-23T02:35:39.196Z,0
2016-10-23T02:36:19.877Z,0
2016-10-23T02:37:00.561Z,0
2016-10-23T02:37:41.265Z,0
2016-10-23T02:38:21.931Z,0
2016-10-23T02:39:02.659Z,0
2016-10-23T02:39:43.342Z,0
2016-10-23T02:40:23.999Z,0
2016-10-23T02:41:04.693Z,0
2016-10-23T02:41:45.402Z,0
2016-10-23T02:42:26.092Z,0
2016-10-23T02:43:06.781Z,0
2016-10-23T02:43:47.488Z,0
2016-10-23T02:44:28.184Z,0
2016-10-23T02:45:08.862Z,0
2016-10-23T02:45:49.549Z,0
2016-10-23T02:46:30.230Z,0
2016-10-23T02:47:10.904Z,0
2016-10-23T02:47:51.587Z,0
2016-10-23T02:48:32.222Z,0
2016-10-23T02:49:12.896Z,0
2016-10-23T02:49:53.580Z,0
2016-10-23T02:50:34.268Z,0
2016-10-23T02:51:14.952Z,0
2016-10-23T02:51:55.645Z,0
2016-10-23T02:52:36.326Z,0
2016-10-23T02:53:17.016Z,0
2016-10-23T02:53:57.722Z,0
2016-10-23T02:54:38.430Z,0
2016-10-23T02:55:19.125Z,0
2016-10-23T02:55:59.800Z,0
2016-10-23T02:56:40.480Z,0
2016-10-23T02:57:21.152Z,0
2016-10-23T02:58:01.868Z,0
2016-10-23T02:58:42.539Z,0
2016-10-23T02:59:23.280Z,0
2016-10-23T03:00:03.994Z,0
2016-10-23T03:00:44.613Z,0
2016-10-23T03:01:25.357Z,0
2016-10-23T03:02:06.002Z,0
2016-10-23T03:02:46.673Z,0
2016-10-23T03:03:27.345Z,0
2016-10-23T03:04:08.034Z,0
2016-10-23T03:04:48.760Z,0
2016-10-23T03:05:29.454Z,0
2016-10-23T03:06:10.162Z,0
2016-10-23T03:06:50.849Z,0
2016-10-23T03:07:31.510Z,0
2016-10-23T03:08:12.170Z,0
2016-10-23T03:08:52.835Z,0
2016-10-23T03:09:33.531Z,0
2016-10-23T03:10:14.199Z,0
2016-10-23T03:10:54.829Z,0
2016-10-23T03:11:35.529Z,0
2016-10-23T03:12:16.243Z,0
2016-10-23T03:12:56.926Z,0
2016-10-23T03:13:37.621Z,0
2016-10-23T03:14:18.327Z,0
2016-10-23T03:14:59.049Z,0
2016-10-23T03:15:39.709Z,0
2016-10-23T03:16:20.417Z,0
2016-10-23T03:17:01.115Z,0
2016-10-23T03:17:41.820Z,0
2016-10-23T03:18:22.539Z,0
2016-10-23T03:19:03.271Z,0
2016-10-23T03:19:43.939Z,0
2016-10-23T03:20:24.610Z,0
2016-10-23T03:21:05.272Z,0
2016-10-23T03:21:45.951Z,0
2016-10-23T03:22:26.619Z,0
2016-10-23T03:23:07.313Z,0
2016-10-23T03:23:48.018Z,0
2016-10-23T03:24:28.715Z,0
2016-10-23T03:25:09.433Z,0
2016-10-23T03:25:50.116Z,0
2016-10-23T03:26:30.772Z,0
2016-10-23T03:27:11.429Z,0
2016-10-23T03:27:52.153Z,0
2016-10-23T03:28:32.865Z,0
2016-10-23T03:29:13.567Z,0
2016-10-23T03:29:54.232Z,0
2016-10-23T03:30:34.914Z,0
2016-10-23T03:31:15.620Z,0
2016-10-23T03:31:56.308Z,0
2016-10-23T03:32:37.000Z,0
2016-10-23T03:33:17.710Z,0
2016-10-23T03:33:58.397Z,0
2016-10-23T03:34:39.042Z,0
2016-10-23T03:35:19.765Z,0
2016-10-23T03:36:00.481Z,0
2016-10-23T03:36:41.191Z,0
2016-10-23T03:37:21.891Z,0
2016-10-23T03:38:02.551Z,0
2016-10-23T03:38:43.248Z,0
2016-10-23T03:39:23.902Z,0
2016-10-23T03:40:04.574Z,0
2016-10-23T03:40:45.261Z,0
2016-10-23T03:41:25.936Z,0
2016-10-23T03:42:06.611Z,0
2016-10-23T03:42:47.256Z,0
2016-10-23T03:43:27.922Z,0
2016-10-23T03:44:08.615Z,0
2016-10-23T03:44:49.348Z,0
2016-10-23T03:45:30.033Z,0
2016-10-23T03:46:10.694Z,0
2016-10-23T03:46:51.368Z,0
2016-10-23T03:47:32.064Z,0
2016-10-23T03:48:12.707Z,0
2016-10-23T03:48:53.402Z,0
2016-10-23T03:49:34.073Z,0
2016-10-23T03:50:14.730Z,0
2016-10-23T03:50:55.441Z,0
2016-10-23T03:51:36.108Z,0
2016-10-23T03:52:16.739Z,0
2016-10-23T03:52:57.451Z,0
2016-10-23T03:53:38.141Z,0
2016-10-23T03:54:18.838Z,0
2016-10-23T03:54:59.480Z,0
2016-10-23T03:55:40.112Z,0
2016-10-23T03:56:20.811Z,0
2016-10-23T03:57:01.491Z,0
2016-10-23T03:57:42.164Z,0
2016-10-23T03:58:22.864Z,0
2016-10-23T03:59:03.528Z,0
2016-10-23T03:59:44.196Z,0
2016-10-23T04:00:24.935Z,0
2016-10-23T04:01:05.642Z,0
2016-10-23T04:01:46.357Z,0
2016-10-23T04:02:27.034Z,0
2016-10-23T04:03:07.730Z,0
2016-10-23T04:03:48.378Z,0
2016-10-23T04:04:29.030Z,0
2016-10-23T04:05:09.707Z,0
2016-10-23T04:05:50.375Z,0
2016-10-23T04:06:31.035Z,0
2016-10-23T04:07:11.674Z,0
2016-10-23T04:07:52.376Z,0
2016-10-23T04:08:33.077Z,0
2016-10-23T04:09:13.729Z,0
2016-10-23T04:09:54.443Z,0
2016-10-23T04:10:35.141Z,0
2016-10-23T04:11:15.834Z,0
2016-10-23T04:11:56.531Z,0
2016-10-23T04:12:37.201Z,0
2016-10-23T04:13:17.908Z,0
2016-10-23T04:13:58.608Z,0
2016-10-23T04:14:39.276Z,0
2016-10-23T04:15:19.989Z,0
2016-10-23T04:16:00.680Z,0
2016-10-23T04:16:41.322Z,0
2016-10-23T04:17:21.953Z,0
2016-10-23T04:18:02.670Z,0
2016-10-23T04:18:43.343Z,0
2016-10-23T04:19:24.031Z,0
2016-10-23T04:20:04.733Z,0
2016-10-23T04:20:45.424Z,0
2016-10-23T04:21:26.123Z,0
2016-10-23T04:22:06.830Z,0
2016-10-23T04:22:47.532Z,0
2016-10-23T04:23:28.163Z,0
2016-10-23T04:24:08.881Z,0
2016-10-23T04:24:49.560Z,0
2016-10-23T04:25:30.222Z,0
2016-10-23T04:26:10.876Z,0
2016-10-23T04:26:51.599Z,0
2016-10-23T04:27:32.260Z,0
2016-10-23T04:28:12.955Z,0
2016-10-23T04:28:53.665Z,0
2016-10-23T04:29:34.391Z,0
2016-10-23T04:30:15.068Z,0
2016-10-23T04:30:55.796Z,0
2016-10-23T04:31:36.501Z,0
2016-10-23T04:32:17.143Z,0
2016-10-23T04:32:57.831Z,0
2016-10-23T04:33:38.566Z,0
2016-10-23T04:34:19.249Z,0
2016-10-23T04:34:59.972Z,0
2016-10-23T04:35:40.664Z,0
2016-10-23T04:36:21.370Z,0
2016-10-23T04:37:02.070Z,0
2016-10-23T04:37:42.729Z,0
2016-10-23T04:38:23.405Z,0
2016-10-23T04:39:04.090Z,0
2016-10-23T04:39:44.782Z,0
2016-10-23T04:40:25.482Z,0
2016-10-23T04:41:06.161Z,0
2016-10-23T04:41:46.861Z,0
2016-10-23T04:42:27.541Z,0
2016-10-23T04:43:08.173Z,0
2016-10-23T04:43:48.832Z,0
2016-10-23T04:44:29.508Z,0
2016-10-23T04:45:10.173Z,0
2016-10-23T04:45:50.837Z,0
2016-10-23T04:46:31.486Z,0
2016-10-23T04:47:12.173Z,0
2016-10-23T04:47:52.883Z,0
2016-10-23T04:48:33.581Z,0
2016-10-23T04:49:14.251Z,0
2016-10-23T04:49:54.930Z,0
2016-10-23T04:50:35.634Z,0
2016-10-23T04:51:16.319Z,0
2016-10-23T04:51:57.026Z,0
2016-10-23T04:52:37.704Z,0
2016-10-23T04:53:18.410Z,0
2016-10-23T04:53:59.056Z,0
2016-10-23T04:54:39.731Z,0
2016-10-23T04:55:20.405Z,0
2016-10-23T04:56:01.119Z,0
2016-10-23T04:56:41.778Z,0
2016-10-23T04:57:22.467Z,0
2016-10-23T04:58:03.173Z,0
2016-10-23T04:58:43.865Z,0
2016-10-23T04:59:24.502Z,0
2016-10-23T05:00:05.214Z,0
2016-10-23T05:00:45.919Z,0
2016-10-23T05:01:26.577Z,0
2016-10-23T05:02:07.242Z,0
2016-10-23T05:02:47.885Z,0
2016-10-23T05:03:28.603Z,0
2016-10-23T05:04:09.276Z,0
2016-10-23T05:04:49.978Z,0
2016-10-23T05:05:30.659Z,0
2016-10-23T05:06:11.349Z,0
2016-10-23T05:06:52.042Z,0
2016-10-23T05:07:32.746Z,0
2016-10-23T05:08:13.432Z,0
2016-10-23T05:08:54.079Z,0
2016-10-23T05:09:34.795Z,0
2016-10-23T05:10:15.446Z,0
2016-10-23T05:10:56.132Z,0
2016-10-23T05:11:36.853Z,0
2016-10-23T05:12:17.488Z,0
2016-10-23T05:12:58.149Z,0
2016-10-23T05:13:38.849Z,0
2016-10-23T05:14:19.548Z,0
2016-10-23T05:15:00.262Z,0
2016-10-23T05:15:40.936Z,0
2016-10-23T05:16:21.603Z,0
2016-10-23T05:17:02.310Z,0
2016-10-23T05:17:43.016Z,0
2016-10-23T05:18:23.714Z,0
2016-10-23T05:19:04.421Z,0
2016-10-23T05:19:45.087Z,0
2016-10-23T05:20:25.820Z,0
2016-10-23T05:21:06.514Z,0
2016-10-23T05:21:47.200Z,0
2016-10-23T05:22:27.877Z,0
2016-10-23T05:23:08.586Z,0
2016-10-23T05:23:49.260Z,0
2016-10-23T05:24:29.983Z,0
2016-10-23T05:25:10.635Z,0
2016-10-23T05:25:51.268Z,0
2016-10-23T05:26:31.958Z,0
2016-10-23T05:27:12.645Z,0
2016-10-23T05:27:53.289Z,0
2016-10-23T05:28:34.014Z,0
2016-10-23T05:29:14.680Z,0
2016-10-23T05:29:56.109Z,0
2016-10-23T05:30:36.086Z,0
2016-10-23T05:31:16.736Z,0
2016-10-23T05:31:57.414Z,0
2016-10-23T05:32:38.078Z,0
2016-10-23T05:33:18.744Z,0
2016-10-23T05:33:59.447Z,0
2016-10-23T05:34:40.093Z,0
2016-10-23T05:35:20.789Z,0
2016-10-23T05:36:01.474Z,0
2016-10-23T05:36:42.125Z,0
2016-10-23T05:37:22.793Z,0
2016-10-23T05:38:04.017Z,0
2016-10-23T05:38:44.697Z,0
2016-10-23T05:39:25.409Z,0
2016-10-23T05:40:06.112Z,0
2016-10-23T05:40:46.789Z,0
2016-10-23T05:41:27.448Z,0
2016-10-23T05:42:08.113Z,0
2016-10-23T05:42:48.799Z,0
2016-10-23T05:43:29.441Z,0
2016-10-23T05:44:10.129Z,0
2016-10-23T05:44:50.810Z,0
2016-10-23T05:45:31.460Z,0
2016-10-23T05:46:12.164Z,0
2016-10-23T05:46:52.797Z,0
2016-10-23T05:47:33.523Z,0
2016-10-23T05:48:14.187Z,0
2016-10-23T05:48:54.889Z,0
2016-10-23T05:49:35.564Z,0
2016-10-23T05:50:16.207Z,0
2016-10-23T05:50:57.619Z,0
2016-10-23T05:51:37.617Z,0
2016-10-23T05:52:18.313Z,0
2016-10-23T05:52:59.012Z,0
2016-10-23T05:53:39.663Z,0
2016-10-23T05:54:20.277Z,0
2016-10-23T05:55:00.957Z,0
2016-10-23T05:55:41.656Z,0
2016-10-23T05:56:22.323Z,0
2016-10-23T05:57:03.019Z,0
2016-10-23T05:57:43.653Z,0
2016-10-23T05:58:24.364Z,0
2016-10-23T05:59:05.032Z,0
2016-10-23T05:59:45.729Z,0
2016-10-23T06:00:26.416Z,0
2016-10-23T06:01:07.102Z,0
2016-10-23T06:01:47.773Z,0
2016-10-23T06:02:28.468Z,0
2016-10-23T06:03:09.134Z,0
2016-10-23T06:03:49.816Z,0
2016-10-23T06:04:30.480Z,0
2016-10-23T06:05:11.189Z,0
2016-10-23T06:05:51.854Z,0
2016-10-23T06:06:32.566Z,0
2016-10-23T06:07:13.213Z,0
2016-10-23T06:07:53.943Z,0
2016-10-23T06:08:34.667Z,0
2016-10-23T06:09:15.392Z,0
2016-10-23T06:09:56.067Z,0
2016-10-23T06:10:36.759Z,4
2016-10-23T06:11:17.457Z,0
2016-10-23T06:11:58.138Z,0
2016-10-23T06:12:38.799Z,0
2016-10-23T06:13:19.479Z,0
2016-10-23T06:14:00.175Z,0
2016-10-23T06:14:40.839Z,0
2016-10-23T06:15:21.516Z,4
2016-10-23T06:16:02.141Z,4
2016-10-23T06:16:42.794Z,4
2016-10-23T06:17:23.514Z,4
2016-10-23T06:18:04.157Z,0
2016-10-23T06:18:44.839Z,4
2016-10-23T06:19:25.502Z,4
2016-10-23T06:20:06.176Z,4
2016-10-23T06:20:46.893Z,4
2016-10-23T06:21:27.578Z,4
2016-10-23T06:22:08.289Z,4
2016-10-23T06:22:48.945Z,4
2016-10-23T06:23:29.615Z,4
2016-10-23T06:24:10.308Z,4
2016-10-23T06:24:50.983Z,8
2016-10-23T06:25:31.671Z,4
2016-10-23T06:26:12.345Z,4
2016-10-23T06:26:53.039Z,8
2016-10-23T06:27:33.694Z,4
2016-10-23T06:28:14.381Z,8
2016-10-23T06:28:55.067Z,8
2016-10-23T06:29:35.707Z,4
2016-10-23T06:30:16.375Z,8
2016-10-23T06:30:57.061Z,4
2016-10-23T06:31:37.803Z,8
2016-10-23T06:32:18.499Z,8
2016-10-23T06:32:59.209Z,8
2016-10-23T06:33:39.917Z,12
2016-10-23T06:34:20.622Z,12
2016-10-23T06:35:01.317Z,12
2016-10-23T06:35:42.027Z,12
2016-10-23T06:36:22.705Z,12
2016-10-23T06:37:03.354Z,12
2016-10-23T06:37:44.015Z,12
2016-10-23T06:38:24.719Z,16
2016-10-23T06:39:05.367Z,16
2016-10-23T06:39:46.070Z,16
2016-10-23T06:40:26.767Z,16
2016-10-23T06:41:07.461Z,16
2016-10-23T06:41:48.157Z,20
2016-10-23T06:42:28.864Z,20
2016-10-23T06:43:09.574Z,20
2016-10-23T06:43:50.271Z,20
2016-10-23T06:44:30.914Z,20
2016-10-23T06:45:11.595Z,24
2016-10-23T06:45:52.281Z,24
2016-10-23T06:46:32.958Z,24
2016-10-23T06:47:13.683Z,24
2016-10-23T06:47:54.391Z,24
2016-10-23T06:48:35.094Z,24
2016-10-23T06:49:15.802Z,24
2016-10-23T06:49:56.428Z,28
2016-10-23T06:50:37.119Z,28
2016-10-23T06:51:17.790Z,28
2016-10-23T06:51:58.470Z,28
2016-10-23T06:52:39.125Z,32
2016-10-23T06:53:19.822Z,32
2016-10-23T06:54:00.511Z,36
2016-10-23T06:54:41.193Z,32
2016-10-23T06:55:21.856Z,32
2016-10-23T06:56:02.510Z,36
2016-10-23T06:56:43.243Z,36
2016-10-23T06:57:23.922Z,32
2016-10-23T06:58:04.591Z,36
2016-10-23T06:58:45.234Z,36
2016-10-23T06:59:26.724Z,32
2016-10-23T07:00:07.456Z,36
2016-10-23T07:00:48.154Z,36
2016-10-23T07:01:28.890Z,36
2016-10-23T07:02:09.579Z,36
2016-10-23T07:02:50.240Z,36
2016-10-23T07:03:30.998Z,36
2016-10-23T07:04:11.669Z,36
2016-10-23T07:04:52.356Z,36
2016-10-23T07:05:32.997Z,32
2016-10-23T07:06:13.677Z,32
2016-10-23T07:06:54.347Z,36
2016-10-23T07:07:35.052Z,40
2016-10-23T07:08:15.770Z,36
2016-10-23T07:08:56.464Z,32
2016-10-23T07:09:37.805Z,32
2016-10-23T07:10:18.564Z,32
2016-10-23T07:10:59.250Z,36
2016-10-23T07:11:39.915Z,40
2016-10-23T07:12:20.625Z,40
2016-10-23T07:13:01.332Z,40
2016-10-23T07:13:42.020Z,36
2016-10-23T07:14:22.712Z,36
2016-10-23T07:15:03.395Z,36
2016-10-23T07:15:44.074Z,36
2016-10-23T07:16:24.718Z,40
2016-10-23T07:17:05.410Z,48
2016-10-23T07:17:46.115Z,56
2016-10-23T07:18:26.799Z,60
2016-10-23T07:19:07.497Z,64
2016-10-23T07:19:48.200Z,60
2016-10-23T07:20:28.900Z,64
2016-10-23T07:21:09.547Z,64
2016-10-23T07:21:50.206Z,68
2016-10-23T07:22:30.864Z,72
2016-10-23T07:23:11.547Z,80
2016-10-23T07:23:52.284Z,84
2016-10-23T07:24:32.968Z,84
2016-10-23T07:25:13.622Z,88
2016-10-23T07:25:54.332Z,84
2016-10-23T07:26:35.016Z,80
2016-10-23T07:27:15.704Z,84
2016-10-23T07:27:56.417Z,88
2016-10-23T07:28:37.077Z,88
2016-10-23T07:29:17.794Z,84
2016-10-23T07:29:58.488Z,84
2016-10-23T07:30:39.153Z,84
2016-10-23T07:31:19.803Z,84
2016-10-23T07:32:00.490Z,88
2016-10-23T07:32:41.206Z,84
2016-10-23T07:33:21.883Z,80
2016-10-23T07:34:02.583Z,84
2016-10-23T07:34:43.239Z,88
2016-10-23T07:35:23.924Z,92
2016-10-23T07:36:04.615Z,88
2016-10-23T07:36:45.302Z,96
2016-10-23T07:37:25.975Z,100
2016-10-23T07:38:06.618Z,100
2016-10-23T07:38:47.314Z,100
2016-10-23T07:39:28.022Z,104
2016-10-23T07:40:08.716Z,100
2016-10-23T07:40:49.404Z,100
2016-10-23T07:41:30.059Z,104
2016-10-23T07:42:10.759Z,100
2016-10-23T07:42:51.469Z,92
2016-10-23T07:43:32.171Z,96
2016-10-23T07:44:12.855Z,96
2016-10-23T07:44:53.562Z,84
2016-10-23T07:45:34.304Z,92
2016-10-23T07:46:15.050Z,92
2016-10-23T07:46:55.702Z,92
2016-10-23T07:47:36.415Z,104
2016-10-23T07:48:17.065Z,120
2016-10-23T07:48:57.807Z,124
2016-10-23T07:49:38.422Z,120
2016-10-23T07:50:19.094Z,108
2016-10-23T07:50:59.822Z,100
2016-10-23T07:51:40.507Z,96
2016-10-23T07:52:21.224Z,92
2016-10-23T07:53:01.950Z,88
2016-10-23T07:53:42.628Z,92
2016-10-23T07:54:23.275Z,88
2016-10-23T07:55:03.960Z,88
2016-10-23T07:55:44.654Z,92
2016-10-23T07:56:25.295Z,84
2016-10-23T07:57:05.974Z,84
2016-10-23T07:57:46.699Z,84
2016-10-23T07:58:27.407Z,88
2016-10-23T07:59:08.123Z,92
2016-10-23T07:59:48.831Z,100
2016-10-23T08:00:29.533Z,108
2016-10-23T08:01:10.229Z,108
2016-10-23T08:01:51.829Z,116
2016-10-23T08:02:32.541Z,104
2016-10-23T08:03:13.212Z,108
2016-10-23T08:03:53.917Z,104
2016-10-23T08:04:34.621Z,100
2016-10-23T08:05:15.299Z,104
2016-10-23T08:05:55.979Z,96
2016-10-23T08:06:36.682Z,88
2016-10-23T08:07:17.383Z,104
2016-10-23T08:07:58.108Z,116
2016-10-23T08:08:38.807Z,120
2016-10-23T08:09:19.512Z,120
2016-10-23T08:10:00.211Z,112
2016-10-23T08:10:40.953Z,112
2016-10-23T08:11:21.621Z,100
2016-10-23T08:12:02.341Z,104
2016-10-23T08:12:43.914Z,112
2016-10-23T08:13:24.591Z,128
2016-10-23T08:14:05.289Z,136
2016-10-23T08:14:45.937Z,144
2016-10-23T08:15:26.600Z,144
2016-10-23T08:16:07.280Z,144
2016-10-23T08:16:47.936Z,144
2016-10-23T08:17:28.606Z,140
2016-10-23T08:18:09.321Z,136
2016-10-23T08:18:50.025Z,136
2016-10-23T08:19:30.721Z,132
2016-10-23T08:20:11.413Z,132
2016-10-23T08:20:52.100Z,128
2016-10-23T08:21:32.770Z,124
2016-10-23T08:22:13.417Z,112
2016-10-23T08:22:54.130Z,112
2016-10-23T08:23:34.799Z,108
2016-10-23T08:24:15.479Z,116
2016-10-23T08:24:56.188Z,120
2016-10-23T08:25:36.902Z,116
2016-10-23T08:26:17.576Z,116
2016-10-23T08:26:58.271Z,116
2016-10-23T08:27:38.978Z,120
2016-10-23T08:28:19.659Z,120
2016-10-23T08:29:00.362Z,120
2016-10-23T08:29:41.013Z,124
2016-10-23T08:30:21.779Z,124
2016-10-23T08:31:02.477Z,124
2016-10-23T08:31:43.188Z,120
2016-10-23T08:32:23.900Z,120
2016-10-23T08:33:04.597Z,120
2016-10-23T08:33:45.229Z,124
2016-10-23T08:34:25.929Z,120
2016-10-23T08:35:06.601Z,120
2016-10-23T08:35:47.309Z,100
2016-10-23T08:36:27.990Z,92
2016-10-23T08:37:08.704Z,88
2016-10-23T08:37:49.358Z,84
2016-10-23T08:38:30.050Z,92
2016-10-23T08:39:11.242Z,112
2016-10-23T08:39:51.437Z,120
2016-10-23T08:40:32.122Z,124
2016-10-23T08:41:12.824Z,124
2016-10-23T08:41:53.513Z,120
2016-10-23T08:42:34.238Z,120
2016-10-23T08:43:14.970Z,96
2016-10-23T08:43:55.636Z,104
2016-10-23T08:44:36.350Z,120
2016-10-23T08:45:17.026Z,116
2016-10-23T08:45:57.756Z,116
2016-10-23T08:46:38.406Z,120
2016-10-23T08:47:19.091Z,124
2016-10-23T08:47:59.795Z,128
2016-10-23T08:48:40.500Z,128
2016-10-23T08:49:21.214Z,128
2016-10-23T08:50:01.920Z,124
2016-10-23T08:50:42.604Z,104
2016-10-23T08:51:23.327Z,96
2016-10-23T08:52:04.006Z,116
2016-10-23T08:52:44.680Z,116
2016-10-23T08:53:25.349Z,116
2016-10-23T08:54:06.039Z,108
2016-10-23T08:54:46.750Z,112
2016-10-23T08:55:27.429Z,120
2016-10-23T08:56:08.125Z,124
2016-10-23T08:56:48.811Z,108
2016-10-23T08:57:29.529Z,100
2016-10-23T08:58:10.187Z,96
2016-10-23T08:58:50.843Z,92
2016-10-23T08:59:31.537Z,92
2016-10-23T09:00:12.195Z,92
2016-10-23T09:00:52.850Z,96
2016-10-23T09:01:33.595Z,100
2016-10-23T09:02:14.282Z,104
2016-10-23T09:02:54.965Z,120
2016-10-23T09:03:35.681Z,96
2016-10-23T09:04:16.393Z,116
2016-10-23T09:04:57.121Z,100
2016-10-23T09:05:37.798Z,124
2016-10-23T09:06:18.475Z,124
2016-10-23T09:06:59.118Z,124
2016-10-23T09:07:39.750Z,128
2016-10-23T09:08:20.428Z,132
2016-10-23T09:09:01.131Z,132
2016-10-23T09:09:41.835Z,132
2016-10-23T09:10:23.258Z,132
2016-10-23T09:11:03.278Z,132
2016-10-23T09:11:43.977Z,136
2016-10-23T09:12:24.639Z,132
2016-10-23T09:13:05.355Z,132
2016-10-23T09:13:46.019Z,132
2016-10-23T09:14:26.695Z,128
2016-10-23T09:15:07.410Z,128
2016-10-23T09:15:48.046Z,124
2016-10-23T09:16:28.751Z,132
2016-10-23T09:17:09.429Z,132
2016-10-23T09:17:50.147Z,132
2016-10-23T09:18:30.881Z,132
2016-10-23T09:19:11.548Z,132
2016-10-23T09:19:52.259Z,128
2016-10-23T09:20:32.962Z,124
2016-10-23T09:21:13.621Z,128
2016-10-23T09:21:54.292Z,128
2016-10-23T09:22:34.976Z,116
2016-10-23T09:23:16.499Z,116
2016-10-23T09:23:57.195Z,112
2016-10-23T09:24:38.774Z,132
2016-10-23T09:25:19.435Z,136
2016-10-23T09:26:00.664Z,120
2016-10-23T09:26:41.299Z,120
2016-10-23T09:27:21.945Z,120
2016-10-23T09:28:02.600Z,144
2016-10-23T09:28:43.265Z,148
2016-10-23T09:29:23.949Z,148
2016-10-23T09:30:04.611Z,152
2016-10-23T09:30:45.294Z,152
2016-10-23T09:31:26.004Z,156
2016-10-23T09:32:06.689Z,160
2016-10-23T09:32:47.373Z,156
2016-10-23T09:33:28.077Z,156
2016-10-23T09:34:08.771Z,140
2016-10-23T09:34:49.444Z,128
2016-10-23T09:35:30.180Z,124
2016-10-23T09:36:10.844Z,124
2016-10-23T09:36:51.485Z,120
2016-10-23T09:37:32.152Z,120
2016-10-23T09:38:12.831Z,116
2016-10-23T09:38:53.548Z,116
2016-10-23T09:39:34.248Z,112
2016-10-23T09:40:14.908Z,116
2016-10-23T09:40:55.635Z,112
2016-10-23T09:41:36.318Z,112
2016-10-23T09:42:16.995Z,112
2016-10-23T09:42:57.712Z,108
2016-10-23T09:43:38.367Z,108
2016-10-23T09:44:19.073Z,104
2016-10-23T09:44:59.725Z,104
2016-10-23T09:45:40.442Z,104
2016-10-23T09:46:21.107Z,100
2016-10-23T09:47:01.825Z,100
2016-10-23T09:47:42.510Z,100
2016-10-23T09:48:23.199Z,96
2016-10-23T09:49:03.919Z,96
2016-10-23T09:49:44.579Z,96
2016-10-23T09:50:25.274Z,96